Main page
METAR-TAF:

METAR-TAF

Airports :

Schleswig Air Base

Schleswig-Jagel, Germany

latitude: 54-28N, longitude: 009-31E, elevation: 22 m

Current weather observation

The report was made 46 minutes ago, at 05:20 UTC
Wind 3 kt from the Southwest
Temperature 15°C
Humidity 88%
Pressure 1023 hPa
Visibility 10 km or more
Broken clouds at a height of 1600 ft

METAR: ETNS 180520Z 23003KT 9999 BKN016 15/13 Q1023 WHT BLU TEMPO GRN

Time: 08:06 (06:06 UTC)

Forecast

The report was made 1 hour and 51 minutes ago, at 04:15 UTC
Forecast valid from 18 at 05 UTC to 18 at 14 UTC
Wind 10 kt from the West
Visibility 10 km or more
Few clouds at a height of 1500 ft
Broken clouds at a height of 3000 ft
Temporary
from 18 at 05 UTC to 18 at 10 UTC
Wind 5 kt from the West/Southwest
Visibility 10 km or more
Broken clouds at a height of 1300 ft

TAF: ETNS 180415Z 1805/1814 27010KT 9999 NSW FEW015 BKN030 TEMPO 1805/1810 25005KT 9999 NSW BKN013

Weather observations and forecasts of more than 4000 airports (METAR and TAF reports).

The available stations are represented by yellow and red dots on the map.

Hover mouse over dot to see the name of the station.

Then click to see weather observations and forecasts.

To change the map : click on the green buttons with a black cross to zoom in, on the green button with a dash to zoom out, or on the green arrows for adjacent maps.


METAR-TAF: